Harrodsburg, Indiana
Current Conditions -  °F | °C
As of 12:53 PM on Wednesday 28 Jan 2015 (Local Time) from KBMG Reporting Station
Clear Clear  
Wind Chill: 25°   Ceiling: Unl
Heat Index: 33°   Visibility: 10mi
Dew Point: 14°   Wind: 9mph
Humidity: 46%   Direction: 180°S
Pressure: 30.28"   Gusts: NA
Location:  39.01°N, 86.54°W
Report Text: KBMG 281753Z 18008KT 10SM CLR 01/M10 A3028 RMK AO2 SLP263 T00061100 10006 21089 58013
Loading
Personal Weather Stations






























Interactive Weather Map New forecast layout! Learn more

10-Day Weather Forecast

Advertisements
Track Severe Weather on mobile